Time;durP1;ratioP1;P1;durP2;ratioP2;P2;SDS_P1;SDS_P2;PMS_P1;PMS_P2;Temp;Humidity;BMP_temperature;BMP_pressure;BME280_temperature;BME280_humidity;BME280_pressure;Samples;Min_cycle;Max_cycle;Signal;HPM_P1;HPM_P2
2022/05/02 00:01:43;;;;;;;18.98;11.63;;;;;;;10.00;59.98;102055.91;5094522;28;20048;-62
2022/05/02 00:04:08;;;;;;;17.20;11.20;;;;;;;9.96;60.12;102051.34;5094230;28;20461;-62
2022/05/02 00:06:34;;;;;;;14.48;11.15;;;;;;;9.92;60.14;102054.75;5094463;28;20442;-62
2022/05/02 00:09:00;;;;;;;15.23;11.38;;;;;;;9.86;60.36;102054.56;5094343;28;20024;-62
2022/05/02 00:11:25;;;;;;;14.57;11.57;;;;;;;9.83;60.51;102047.41;5094269;28;20393;-62
2022/05/02 00:13:51;;;;;;;17.17;10.93;;;;;;;9.82;60.28;102043.00;5094235;28;20089;-62
2022/05/02 00:16:16;;;;;;;18.42;11.35;;;;;;;9.88;60.12;102050.22;5094157;28;20024;-62
2022/05/02 00:18:41;;;;;;;15.60;11.82;;;;;;;9.82;60.08;102047.38;5094119;28;20385;-62
2022/05/02 00:21:09;;;;;;;16.88;11.68;;;;;;;9.77;60.25;102044.59;5094146;28;20466;-62
2022/05/02 00:23:34;;;;;;;14.75;11.55;;;;;;;9.74;60.01;102037.44;5093986;28;20020;-62
2022/05/02 00:26:00;;;;;;;17.48;11.07;;;;;;;9.75;60.42;102041.00;5093942;28;20031;-62
2022/05/02 00:28:25;;;;;;;16.08;11.68;;;;;;;9.82;60.12;102044.75;5093908;28;20028;-62
2022/05/02 00:30:50;;;;;;;15.95;11.35;;;;;;;9.87;59.88;102037.88;5093865;28;20047;-62
2022/05/02 00:33:18;;;;;;;16.02;11.32;;;;;;;9.86;60.01;102034.34;5093953;28;20024;-62
2022/05/02 00:35:44;;;;;;;17.02;11.68;;;;;;;9.86;59.65;102029.06;5093849;28;20081;-62
2022/05/02 00:38:09;;;;;;;15.32;11.35;;;;;;;9.81;59.58;102022.72;5093812;28;20491;-62
2022/05/02 00:40:35;;;;;;;16.25;11.40;;;;;;;9.74;59.82;102026.91;5093798;28;20024;-62
2022/05/02 00:43:00;;;;;;;15.02;10.40;;;;;;;9.68;60.43;102025.81;5093889;28;20121;-62
2022/05/02 00:45:25;;;;;;;16.20;11.65;;;;;;;9.65;60.67;102020.44;5093583;28;20030;-62
2022/05/02 00:47:53;;;;;;;16.17;10.98;;;;;;;9.68;59.98;102021.44;5093664;28;20110;-62
2022/05/02 00:50:31;;;;;;;14.93;10.75;;;;;;;9.71;59.60;102026.78;5093645;28;20028;-62
2022/05/02 00:52:56;;;;;;;17.45;11.57;;;;;;;9.64;59.91;102016.00;5093425;28;20031;-62
2022/05/02 00:55:22;;;;;;;18.30;11.35;;;;;;;9.57;60.22;102017.53;5093484;28;20055;-62
2022/05/02 00:57:47;;;;;;;16.45;11.02;;;;;;;9.49;60.60;102021.63;5093430;28;20042;-62
2022/05/02 01:00:13;;;;;;;15.30;10.95;;;;;;;9.42;61.15;102014.34;5093406;28;20027;-62
2022/05/02 01:02:38;;;;;;;17.05;11.38;;;;;;;9.35;60.90;102018.53;5093515;28;20028;-62
2022/05/02 01:05:04;;;;;;;17.35;11.40;;;;;;;9.33;60.78;102011.41;5093357;28;20058;-62
2022/05/02 01:07:29;;;;;;;16.95;11.15;;;;;;;9.40;61.13;102023.97;5093505;28;20439;-62
2022/05/02 01:09:54;;;;;;;15.15;11.05;;;;;;;9.37;61.02;102013.31;5093334;28;20377;-62
2022/05/02 01:12:22;;;;;;;15.82;11.18;;;;;;;9.29;60.92;102020.94;5093219;28;20016;-61
2022/05/02 01:14:54;;;;;;;16.33;11.68;;;;;;;9.23;61.22;102020.75;5093104;28;20028;-62
2022/05/02 01:17:20;;;;;;;16.33;11.60;;;;;;;9.25;61.03;102021.72;5092979;28;20028;-62
2022/05/02 01:19:47;;;;;;;18.85;11.63;;;;;;;9.23;61.02;102013.72;5093307;28;20020;-62
2022/05/02 01:22:13;;;;;;;14.90;11.25;;;;;;;9.19;61.12;102019.72;5092911;28;20055;-62
2022/05/02 01:24:44;;;;;;;16.95;11.60;;;;;;;9.15;60.74;102017.84;5093112;28;21172;-62
2022/05/02 01:27:11;;;;;;;18.20;11.60;;;;;;;9.09;61.63;102012.34;5093209;28;20076;-62
2022/05/02 01:29:38;;;;;;;17.83;11.30;;;;;;;9.07;61.53;102011.38;5093091;28;20027;-62
2022/05/02 01:32:06;;;;;;;16.30;11.43;;;;;;;9.15;61.39;102011.66;5093227;28;20054;-61
2022/05/02 01:34:36;;;;;;;14.63;11.45;;;;;;;9.07;61.28;102013.13;5093090;28;20092;-62
2022/05/02 01:37:02;;;;;;;19.55;11.68;;;;;;;9.06;61.44;102011.34;5092921;28;20118;-62
2022/05/02 01:39:31;;;;;;;16.17;11.25;;;;;;;9.04;61.04;102003.38;5093261;28;20111;-62
2022/05/02 01:42:03;;;;;;;18.38;11.77;;;;;;;9.03;60.98;102009.47;5093130;28;20457;-62
2022/05/02 01:44:28;;;;;;;16.85;10.77;;;;;;;9.08;60.67;102002.66;5093189;28;20384;-62
2022/05/02 01:46:54;;;;;;;15.77;11.10;;;;;;;9.06;61.02;102004.31;5092981;28;20442;-62
2022/05/02 01:49:20;;;;;;;13.77;10.35;;;;;;;9.05;61.03;101999.00;5093020;28;20066;-62
2022/05/02 01:51:46;;;;;;;16.90;11.25;;;;;;;8.99;61.53;101997.03;5092756;28;20470;-62
2022/05/02 01:54:11;;;;;;;17.52;11.02;;;;;;;9.01;61.05;101993.63;5092798;28;20094;-62
2022/05/02 01:56:36;;;;;;;16.58;11.23;;;;;;;8.91;61.43;102006.44;5093045;28;20431;-62
2022/05/02 01:59:03;;;;;;;15.05;10.90;;;;;;;8.76;62.22;102001.47;5092931;28;20031;-62
2022/05/02 02:01:29;;;;;;;14.10;10.80;;;;;;;8.67;63.05;101995.88;5092928;28;20044;-62
2022/05/02 02:03:54;;;;;;;15.55;10.55;;;;;;;8.61;62.39;101991.28;5092860;28;20090;-62
2022/05/02 02:06:21;;;;;;;14.63;10.90;;;;;;;8.66;62.33;101991.47;5092557;28;20034;-62
2022/05/02 02:08:47;;;;;;;15.65;11.55;;;;;;;8.63;62.86;101989.59;5074769;28;20449;-61
2022/05/02 02:11:14;;;;;;;19.85;11.65;;;;;;;8.61;62.24;101993.00;5092724;28;20438;-62
2022/05/02 02:13:39;;;;;;;14.30;11.00;;;;;;;8.60;62.67;101999.13;5092849;28;20078;-62
2022/05/02 02:16:07;;;;;;;16.30;11.52;;;;;;;8.53;62.77;102001.53;5092868;28;20028;-62
2022/05/02 02:18:34;;;;;;;16.27;11.88;;;;;;;8.52;63.00;101996.19;5092710;28;20035;-62
2022/05/02 02:21:00;;;;;;;16.45;11.48;;;;;;;8.54;63.24;101997.16;5092695;28;20381;-62
2022/05/02 02:23:25;;;;;;;16.40;11.00;;;;;;;8.58;62.64;101998.19;5092842;28;20024;-62
2022/05/02 02:25:51;;;;;;;17.95;11.55;;;;;;;8.57;62.32;101996.41;5092545;28;20366;-62
2022/05/02 02:28:17;;;;;;;15.55;11.50;;;;;;;8.51;61.96;101987.41;5095704;28;20031;-61
2022/05/02 02:30:43;;;;;;;14.38;11.00;;;;;;;8.48;61.91;101996.94;5096484;28;20020;-62
2022/05/02 02:33:09;;;;;;;16.13;12.10;;;;;;;8.39;62.81;101997.47;5096205;28;20130;-62
2022/05/02 02:35:35;;;;;;;18.38;12.63;;;;;;;8.37;63.02;102000.91;5096156;28;20172;-62
2022/05/02 02:38:00;;;;;;;16.67;11.55;;;;;;;8.43;62.44;101998.47;5095950;28;20024;-62
2022/05/02 02:40:25;;;;;;;14.75;10.70;;;;;;;8.35;63.17;101977.13;5096098;28;20359;-61
2022/05/02 02:42:51;;;;;;;16.13;11.65;;;;;;;8.43;62.44;101996.75;5096064;28;20484;-62
2022/05/02 02:45:16;;;;;;;14.70;11.50;;;;;;;8.37;62.79;101987.72;5095907;28;20032;-62
2022/05/02 02:47:43;;;;;;;15.30;11.57;;;;;;;8.31;62.73;101992.72;5095997;28;20020;-62
2022/05/02 02:50:09;;;;;;;17.73;11.60;;;;;;;8.29;62.69;101992.66;5095895;28;20036;-62
2022/05/02 02:52:34;;;;;;;17.02;11.55;;;;;;;8.28;63.41;101982.97;5095706;28;20065;-62
2022/05/02 02:55:00;;;;;;;15.43;11.68;;;;;;;8.26;63.36;101976.72;5095654;28;20113;-62
2022/05/02 02:57:25;;;;;;;16.20;11.77;;;;;;;8.26;63.04;101980.28;5095757;28;20060;-62
2022/05/02 02:59:50;;;;;;;16.00;11.02;;;;;;;8.22;63.09;101980.09;5095621;28;20059;-61
2022/05/02 03:02:16;;;;;;;16.63;11.10;;;;;;;8.21;63.01;101973.03;5095732;28;20020;-61
2022/05/02 03:07:27;;;;;;;14.55;10.05;;;;;;;8.22;62.72;101974.81;5095768;28;20047;-62
2022/05/02 03:09:53;;;;;;;16.75;11.05;;;;;;;8.22;62.59;101969.56;5095553;28;20056;-61
2022/05/02 03:12:21;;;;;;;14.15;10.32;;;;;;;8.15;62.72;101973.72;5095583;28;20062;-61
2022/05/02 03:14:46;;;;;;;17.88;10.80;;;;;;;8.15;63.22;101971.06;5095460;28;20078;-61
2022/05/02 03:17:12;;;;;;;13.35;10.13;;;;;;;8.15;62.57;101975.44;5095389;28;20485;-62
2022/05/02 03:19:38;;;;;;;16.60;10.57;;;;;;;8.07;63.72;101975.16;5095363;28;20024;-61
2022/05/02 03:22:04;;;;;;;17.45;11.32;;;;;;;8.01;63.92;101981.06;5095565;28;20020;-61
2022/05/02 03:24:30;;;;;;;16.10;11.07;;;;;;;8.01;63.46;101975.81;5095147;28;20048;-61
2022/05/02 03:26:55;;;;;;;17.08;11.20;;;;;;;8.00;63.61;101970.47;5095256;28;20067;-61
2022/05/02 03:29:20;;;;;;;14.52;10.73;;;;;;;7.97;63.53;101967.75;5095382;28;20028;-62
2022/05/02 03:31:46;;;;;;;14.77;11.35;;;;;;;7.97;63.31;101973.91;5095175;28;20073;-61
2022/05/02 03:34:11;;;;;;;15.30;10.20;;;;;;;7.86;64.73;101967.28;5094977;28;20024;-61
2022/05/02 03:36:37;;;;;;;14.93;10.48;;;;;;;7.78;64.64;101966.09;5094882;28;20105;-61
2022/05/02 03:39:03;;;;;;;12.98;10.15;;;;;;;7.80;64.59;101967.06;5094508;28;20020;-61
2022/05/02 03:41:29;;;;;;;14.23;10.23;;;;;;;7.79;64.54;101967.88;5094922;28;20071;-62
2022/05/02 03:43:54;;;;;;;14.60;10.45;;;;;;;7.76;64.11;101968.66;5095082;28;20043;-61
2022/05/02 03:46:20;;;;;;;12.07;9.57;;;;;;;7.77;64.32;101966.94;5094693;28;20063;-61
2022/05/02 03:48:45;;;;;;;12.73;10.18;;;;;;;7.72;64.28;101969.38;5094879;28;20028;-61
2022/05/02 03:51:11;;;;;;;16.92;11.07;;;;;;;7.66;64.79;101969.13;5094691;28;20039;-62
2022/05/02 03:53:37;;;;;;;13.18;10.27;;;;;;;7.62;65.08;101961.03;5094627;28;20125;-61
2022/05/02 03:56:03;;;;;;;17.45;11.27;;;;;;;7.61;65.12;101969.78;5094496;28;20090;-61
2022/05/02 03:58:28;;;;;;;15.07;11.18;;;;;;;7.59;64.52;101974.09;5094428;28;20028;-61
2022/05/02 04:00:53;;;;;;;15.07;10.73;;;;;;;7.57;64.98;101976.63;5094453;28;20027;-62
2022/05/02 04:03:19;;;;;;;16.35;10.85;;;;;;;7.57;64.64;101970.47;5094724;28;20020;-61
2022/05/02 04:05:44;;;;;;;13.60;10.63;;;;;;;7.54;64.35;101963.38;5094391;28;20024;-61
2022/05/02 04:08:10;;;;;;;13.43;10.40;;;;;;;7.59;63.92;101966.19;5093654;28;20031;-62
2022/05/02 04:10:35;;;;;;;14.98;10.27;;;;;;;7.55;63.36;101964.28;5093749;28;20051;-61
2022/05/02 04:13:01;;;;;;;13.90;9.95;;;;;;;7.63;63.67;101970.75;5093968;28;20032;-61
2022/05/02 04:15:26;;;;;;;14.52;10.68;;;;;;;7.63;64.00;101968.13;5093655;28;20030;-61
2022/05/02 04:17:51;;;;;;;15.45;10.50;;;;;;;7.69;64.95;101965.72;5093524;28;20024;-62
2022/05/02 04:20:17;;;;;;;15.55;10.60;;;;;;;7.74;63.65;101970.31;5093864;28;20024;-61
2022/05/02 04:22:42;;;;;;;14.20;10.90;;;;;;;7.71;64.38;101974.59;5093539;28;20458;-62
2022/05/02 04:25:08;;;;;;;17.05;11.10;;;;;;;7.64;63.70;101976.06;5093356;28;20478;-62
2022/05/02 04:27:33;;;;;;;17.52;11.13;;;;;;;7.54;63.87;101968.66;5093625;28;20031;-61
2022/05/02 04:29:59;;;;;;;14.98;11.27;;;;;;;7.49;64.56;101972.78;5093365;28;20035;-62
2022/05/02 04:32:25;;;;;;;17.75;11.55;;;;;;;7.48;65.22;101971.91;5093266;28;20028;-61
2022/05/02 04:34:52;;;;;;;16.25;11.48;;;;;;;7.50;64.98;101965.00;5093338;28;20103;-61
2022/05/02 04:37:17;;;;;;;15.00;10.57;;;;;;;7.56;64.88;101969.59;5093477;28;20516;-62
2022/05/02 04:39:43;;;;;;;15.45;10.93;;;;;;;7.56;64.27;101964.34;5093138;28;20107;-61
2022/05/02 04:42:08;;;;;;;15.20;11.05;;;;;;;7.58;64.37;101967.94;5093176;28;20024;-61
2022/05/02 04:44:34;;;;;;;14.00;10.55;;;;;;;7.62;64.79;101966.31;5093060;28;20031;-61
2022/05/02 04:47:00;;;;;;;17.15;10.40;;;;;;;7.61;64.70;101962.78;5074808;28;20031;-61
2022/05/02 04:49:25;;;;;;;17.05;10.48;;;;;;;7.61;64.70;101967.16;5093066;28;20031;-61
2022/05/02 04:51:50;;;;;;;16.17;10.35;;;;;;;7.68;64.79;101972.72;5092176;28;20039;-61
2022/05/02 04:54:15;;;;;;;15.73;10.77;;;;;;;7.77;64.25;101969.56;5091240;28;20043;-62
2022/05/02 04:56:41;;;;;;;15.00;11.38;;;;;;;7.83;64.77;101964.53;5090103;28;20044;-62
2022/05/02 04:59:06;;;;;;;16.55;11.10;;;;;;;7.91;64.59;101968.38;5093062;28;20040;-61
2022/05/02 05:01:31;;;;;;;17.25;10.55;;;;;;;7.98;64.75;101970.41;5092822;28;20024;-62
2022/05/02 05:03:57;;;;;;;18.10;11.48;;;;;;;8.10;63.91;101970.00;5092902;28;20016;-61
2022/05/02 05:06:22;;;;;;;19.70;11.73;;;;;;;8.14;64.43;101971.91;5092834;28;20381;-61
2022/05/02 05:08:48;;;;;;;17.08;12.05;;;;;;;8.23;65.64;101974.00;5092894;28;20406;-61
2022/05/02 05:11:50;;;;;;;17.20;12.10;;;;;;;8.35;65.28;101966.59;5092692;28;20102;-61
2022/05/02 05:17:30;;;;;;;19.42;12.18;;;;;;;8.69;64.76;101975.75;5093041;28;20115;-61
2022/05/02 05:22:51;;;;;;;18.73;12.80;;;;;;;9.05;64.36;101975.28;5090295;28;20044;-61
2022/05/02 05:25:25;;;;;;;20.60;13.50;;;;;;;9.22;64.99;101972.38;5092533;28;20531;-61
2022/05/02 05:28:15;;;;;;;18.92;13.77;;;;;;;9.41;64.82;101970.34;5092573;28;20027;-62
2022/05/02 05:30:44;;;;;;;27.35;17.02;;;;;;;9.53;65.20;101970.78;5092528;28;20470;-62
2022/05/02 05:33:40;;;;;;;26.23;18.45;;;;;;;9.71;64.30;101971.34;5092620;28;20051;-62
2022/05/02 05:36:25;;;;;;;31.65;17.70;;;;;;;9.94;64.10;101965.94;5092712;28;20036;-61
2022/05/02 05:39:07;;;;;;;28.55;16.58;;;;;;;10.17;64.70;101966.63;5092732;28;20154;-62
2022/05/02 05:41:55;;;;;;;26.95;17.10;;;;;;;10.32;64.41;101966.22;5092464;28;20028;-61
2022/05/02 05:44:29;;;;;;;28.80;17.13;;;;;;;10.42;64.40;101963.91;5092379;28;20039;-61
2022/05/02 05:47:11;;;;;;;26.88;16.45;;;;;;;10.53;64.00;101970.41;5074148;28;20031;-62
2022/05/02 05:50:20;;;;;;;27.33;16.98;;;;;;;10.73;63.38;101970.06;5092410;28;20024;-62
2022/05/02 05:52:59;;;;;;;23.25;16.17;;;;;;;10.88;63.42;101972.25;5093217;28;20036;-61
2022/05/02 05:55:30;;;;;;;26.60;17.02;;;;;;;10.99;63.60;101976.06;5093398;28;20032;-61
2022/05/02 05:58:27;;;;;;;26.20;16.45;;;;;;;11.23;62.65;101981.13;5093189;28;20043;-61
2022/05/02 06:01:11;;;;;;;25.92;17.42;;;;;;;11.40;62.68;101978.94;5092545;28;20034;-61
2022/05/02 06:03:54;;;;;;;23.00;16.05;;;;;;;11.51;62.06;101980.97;5096439;28;20031;-62
2022/05/02 06:06:22;;;;;;;26.88;16.00;;;;;;;11.64;61.28;101989.22;5096211;28;20031;-62
2022/05/02 06:08:52;;;;;;;22.83;15.55;;;;;;;11.85;62.39;101980.94;5096309;28;20366;-62
2022/05/02 06:11:19;;;;;;;26.52;17.55;;;;;;;11.95;61.06;101982.97;5096158;28;20077;-61
2022/05/02 06:13:45;;;;;;;26.38;17.25;;;;;;;12.03;61.74;101976.06;5096240;28;20016;-61
2022/05/02 06:18:57;;;;;;;23.23;16.30;;;;;;;12.38;60.52;101976.88;5096397;28;20093;-61
2022/05/02 06:21:23;;;;;;;23.45;16.77;;;;;;;12.65;59.61;101973.00;5095986;28;20064;-61
2022/05/02 06:23:52;;;;;;;28.70;17.13;;;;;;;12.89;58.32;101976.13;5095848;28;20111;-61
2022/05/02 06:26:22;;;;;;;22.83;16.00;;;;;;;13.10;58.05;101980.94;5095941;28;20028;-61
2022/05/02 06:28:49;;;;;;;22.38;14.60;;;;;;;13.30;56.08;101983.09;5095679;28;20028;-62
2022/05/02 06:31:31;;;;;;;22.85;14.10;;;;;;;13.49;55.44;101972.84;5096101;28;20035;-62
2022/05/02 06:33:57;;;;;;;22.73;14.50;;;;;;;13.67;54.82;101972.25;5095718;28;20036;-62
2022/05/02 06:36:22;;;;;;;21.70;14.43;;;;;;;13.82;54.67;101976.00;5095884;28;20024;-61
2022/05/02 06:39:27;;;;;;;23.08;14.02;;;;;;;13.99;53.96;101978.03;5095563;28;20438;-61
2022/05/02 06:42:01;;;;;;;17.60;13.07;;;;;;;14.33;52.74;101981.16;5077696;28;20408;-61
2022/05/02 06:44:45;;;;;;;18.95;13.40;;;;;;;14.56;51.88;101981.53;5077145;28;20035;-61
2022/05/02 06:47:28;;;;;;;19.98;13.07;;;;;;;14.72;51.51;101977.25;5095616;28;20054;-61
2022/05/02 06:49:57;;;;;;;17.27;13.07;;;;;;;14.86;50.79;101983.66;5095225;28;20024;-62
2022/05/02 06:52:28;;;;;;;20.00;12.70;;;;;;;15.21;49.73;101977.81;5095581;28;20027;-62
2022/05/02 06:55:23;;;;;;;17.92;13.20;;;;;;;15.44;49.54;101975.34;5095547;28;20392;-62
2022/05/02 06:58:20;;;;;;;16.50;12.27;;;;;;;15.64;47.94;101973.78;5095355;28;20334;-61
2022/05/02 07:01:08;;;;;;;15.95;11.60;;;;;;;15.82;47.69;101973.03;5095049;28;20039;-62
2022/05/02 07:03:50;;;;;;;17.08;11.15;;;;;;;15.96;46.12;101976.66;5094620;28;20166;-61
2022/05/02 07:06:27;;;;;;;;;;;;;;;16.12;45.83;101975.00;5095549;28;20106;-62
2022/05/02 07:09:00;;;;;;;17.50;12.00;;;;;;;16.20;45.85;101967.94;5095159;28;19912;-62
2022/05/02 07:11:54;;;;;;;18.35;12.52;;;;;;;16.32;45.69;101974.25;5095413;28;20032;-62
2022/05/02 07:14:19;;;;;;;16.90;12.07;;;;;;;16.51;44.82;101976.09;5095340;28;20070;-61
2022/05/02 07:16:51;;;;;;;22.30;12.38;;;;;;;16.77;44.18;101974.44;5095716;28;20024;-62
2022/05/02 07:19:35;;;;;;;18.23;12.07;;;;;;;16.90;44.47;101969.16;5095339;28;20023;-63
2022/05/02 07:22:11;;;;;;;19.63;11.93;;;;;;;17.05;43.46;101971.88;5094772;28;20037;-62
2022/05/02 07:24:56;;;;;;;20.45;11.52;;;;;;;17.34;43.39;101968.31;5094910;28;20028;-61
2022/05/02 07:27:36;;;;;;;19.00;12.32;;;;;;;17.50;43.35;101970.13;5094637;28;20027;-62
2022/05/02 07:30:02;;;;;;;15.15;11.55;;;;;;;17.62;42.15;101963.88;5094910;28;20109;-62
2022/05/02 07:32:29;;;;;;;21.80;11.43;;;;;;;17.77;41.85;101971.91;5094523;28;20127;-62
2022/05/02 07:34:55;;;;;;;17.02;12.30;;;;;;;17.84;41.69;101973.69;5094897;28;20105;-62
2022/05/02 07:37:22;;;;;;;16.27;11.60;;;;;;;18.14;40.48;101963.84;5094495;28;20077;-62
2022/05/02 07:39:49;;;;;;;14.52;11.43;;;;;;;18.33;40.08;101970.94;5094381;28;20461;-62
2022/05/02 07:42:15;;;;;;;18.85;11.65;;;;;;;18.50;39.33;101962.84;5094253;28;20020;-62
2022/05/02 07:44:43;;;;;;;16.25;11.82;;;;;;;18.66;39.21;101969.88;5094186;28;20074;-62
2022/05/02 07:47:11;;;;;;;14.80;11.52;;;;;;;18.77;39.09;101964.53;5094364;28;20577;-61
2022/05/02 07:49:39;;;;;;;16.45;10.77;;;;;;;18.84;38.42;101962.69;5094239;28;20060;-62
2022/05/02 07:52:08;;;;;;;15.68;11.02;;;;;;;19.03;39.01;101972.41;5094310;28;20020;-62
2022/05/02 07:54:41;;;;;;;15.15;10.43;;;;;;;19.26;37.74;101964.19;5094034;28;20023;-62
2022/05/02 07:57:07;;;;;;;15.00;10.30;;;;;;;19.31;36.99;101970.41;5094338;28;20055;-62
2022/05/02 07:59:40;;;;;;;14.02;10.27;;;;;;;19.46;37.34;101972.09;5094259;28;20054;-62
2022/05/02 08:02:07;;;;;;;17.15;9.98;;;;;;;19.64;36.00;101969.28;5094170;28;20024;-62
2022/05/02 08:04:36;;;;;;;18.23;10.23;;;;;;;19.73;35.05;101965.63;5093916;28;20470;-62
2022/05/02 08:07:09;;;;;;;17.02;10.18;;;;;;;19.78;34.64;101969.16;5094098;28;20024;-62
2022/05/02 08:09:53;;;;;;;18.02;9.60;;;;;;;19.81;34.31;101965.56;5093713;28;20031;-62
2022/05/02 08:12:33;;;;;;;13.63;10.00;;;;;;;20.05;34.43;101965.31;5094125;28;20032;-62
2022/05/02 08:15:11;;;;;;;13.52;9.75;;;;;;;20.35;33.95;101960.53;5093857;28;20035;-62
2022/05/02 08:18:13;;;;;;;13.65;9.77;;;;;;;20.61;34.07;101957.53;5093878;28;20043;-62
2022/05/02 08:20:44;;;;;;;17.27;10.27;;;;;;;20.64;32.64;101958.41;5093534;28;20032;-62
2022/05/02 08:29:46;;;;;;;15.88;9.32;;;;;;;20.70;30.53;101955.63;5011658;28;20136;-61
2022/05/02 08:32:22;;;;;;;13.60;9.85;;;;;;;20.72;31.34;101960.97;5011414;28;20037;-62
2022/05/02 08:35:01;;;;;;;13.63;9.55;;;;;;;20.91;31.26;101953.56;5011265;28;20113;-62
2022/05/02 08:37:48;;;;;;;11.60;8.88;;;;;;;21.11;29.55;101955.91;5011267;28;20179;-62
2022/05/02 08:40:13;;;;;;;15.43;9.48;;;;;;;21.07;29.84;101955.09;5010764;28;20022;-62
2022/05/02 08:42:59;;;;;;;12.63;9.32;;;;;;;21.25;29.81;101957.50;5011916;28;20141;-62
2022/05/02 08:45:43;;;;;;;14.43;9.50;;;;;;;21.32;30.63;101950.25;5011321;28;20029;-62
2022/05/02 08:48:14;;;;;;;13.20;8.23;;;;;;;21.46;29.59;101947.34;5011214;28;20038;-62
2022/05/02 08:50:43;;;;;;;13.82;8.70;;;;;;;21.72;28.97;101953.16;5011313;28;20041;-62
2022/05/02 08:53:47;;;;;;;11.88;8.25;;;;;;;21.78;29.42;101943.19;5011117;28;20052;-62
2022/05/02 08:56:38;;;;;;;13.07;8.85;;;;;;;21.82;28.70;101939.53;4971997;28;20419;-62
2022/05/02 08:59:23;;;;;;;12.52;8.90;;;;;;;21.85;30.22;101947.56;4971670;28;20503;-62
2022/05/02 09:02:14;;;;;;;13.15;8.73;;;;;;;21.98;28.53;101947.28;4973703;28;20035;-62
2022/05/02 09:05:06;;;;;;;12.27;8.57;;;;;;;22.22;28.02;101947.75;5010548;28;20568;-62
2022/05/02 09:07:48;;;;;;;12.80;8.32;;;;;;;22.55;27.69;101947.97;5010770;28;20038;-62
2022/05/02 09:10:52;;;;;;;;;;;;;;;22.75;28.74;101948.44;5011332;28;20465;-62
2022/05/02 09:13:43;;;;;;;11.02;7.72;;;;;;;22.64;26.89;101947.78;4990965;28;20524;-62
2022/05/02 09:16:49;;;;;;;12.60;7.85;;;;;;;22.59;27.61;101949.69;4991130;28;20035;-62
2022/05/02 09:19:52;;;;;;;9.57;7.43;;;;;;;22.58;26.48;101946.13;4986245;28;20065;-62
2022/05/02 09:23:00;;;;;;;10.90;7.75;;;;;;;22.54;27.14;101939.00;4990938;28;20066;-62
2022/05/02 09:25:57;;;;;;;9.77;7.28;;;;;;;22.72;27.09;101937.72;4990678;28;20463;-62
2022/05/02 09:28:58;;;;;;;11.55;7.43;;;;;;;22.95;27.06;101939.91;4984310;28;20050;-62
2022/05/02 09:31:57;;;;;;;11.60;7.43;;;;;;;23.28;26.38;101943.63;4895141;29;20056;-62
2022/05/02 09:34:45;;;;;;;10.65;7.20;;;;;;;23.68;25.50;101937.22;4895193;29;20036;-62
2022/05/02 09:37:40;;;;;;;13.00;7.80;;;;;;;23.71;25.16;101938.03;4881032;29;20040;-62
2022/05/02 09:40:15;;;;;;;10.55;8.15;;;;;;;23.67;25.43;101933.66;4843230;29;20046;-62
2022/05/02 09:43:08;;;;;;;10.07;7.82;;;;;;;23.70;25.96;101913.81;4843363;29;20053;-62
2022/05/02 09:52:09;;;;;;;11.57;7.97;;;;;;;23.96;25.06;101908.56;4876220;29;20041;-62
2022/05/02 09:58:00;;;;;;;10.98;7.60;;;;;;;24.09;25.14;101922.63;4880091;29;20428;-62
2022/05/02 10:01:10;;;;;;;11.07;7.50;;;;;;;24.14;23.56;101907.16;4880230;29;20037;-62
2022/05/02 10:04:11;;;;;;;11.05;7.95;;;;;;;24.21;24.61;101908.75;4879882;29;20551;-62
2022/05/02 10:06:37;;;;;;;10.07;7.47;;;;;;;24.34;23.91;101912.00;4824418;29;20074;-62
2022/05/02 10:09:10;;;;;;;12.17;7.00;;;;;;;24.13;23.43;101910.78;4869528;29;20518;-63
2022/05/02 10:11:57;;;;;;;10.68;6.95;;;;;;;24.15;24.25;101914.34;4880097;29;20282;-62
2022/05/02 10:14:59;;;;;;;8.75;6.82;;;;;;;24.43;23.79;101903.63;4880278;29;20025;-62
2022/05/02 10:17:42;;;;;;;14.18;7.28;;;;;;;24.48;23.95;101906.19;4955562;28;20050;-62
2022/05/02 10:20:07;;;;;;;7.85;6.75;;;;;;;24.83;23.89;101906.91;4994298;28;20038;-63
2022/05/02 10:22:44;;;;;;;13.57;6.88;;;;;;;24.96;23.63;101909.19;4994198;28;20050;-62
2022/05/02 10:25:27;;;;;;;13.02;7.40;;;;;;;25.09;23.56;101904.28;4994151;28;20097;-63
2022/05/02 10:28:01;;;;;;;9.75;7.32;;;;;;;25.01;23.49;101906.34;4994140;28;20030;-63
2022/05/02 10:30:40;;;;;;;10.75;7.28;;;;;;;25.06;22.58;101900.78;4993889;28;20034;-62
2022/05/02 10:33:14;;;;;;;12.65;7.35;;;;;;;25.17;22.37;101899.50;4994078;28;20110;-63
2022/05/02 10:35:45;;;;;;;9.45;7.60;;;;;;;24.69;22.67;101889.31;4993963;28;20034;-63
2022/05/02 10:38:18;;;;;;;11.15;7.38;;;;;;;24.12;23.36;101897.34;4993880;28;20058;-63
2022/05/02 10:40:46;;;;;;;13.05;7.30;;;;;;;23.97;24.10;101895.94;4993911;28;20451;-62
2022/05/02 10:43:35;;;;;;;9.50;7.05;;;;;;;24.04;25.22;101885.88;5088628;28;20113;-63
2022/05/02 10:46:01;;;;;;;10.13;7.20;;;;;;;24.22;23.97;101880.81;5095250;28;20089;-63
2022/05/02 10:48:38;;;;;;;9.95;7.35;;;;;;;24.18;23.58;101881.84;5095474;28;20030;-63
2022/05/02 10:51:11;;;;;;;11.77;7.13;;;;;;;24.00;24.91;101871.56;5095590;28;20032;-62
2022/05/02 10:54:05;;;;;;;11.07;7.47;;;;;;;24.20;24.00;101877.28;5095340;28;20032;-63
2022/05/02 10:56:40;;;;;;;11.10;7.35;;;;;;;24.47;23.89;101875.59;5095184;28;20027;-62
2022/05/02 10:59:08;;;;;;;10.43;7.45;;;;;;;24.78;23.03;101871.03;5095245;28;20488;-61
2022/05/02 11:01:46;;;;;;;13.02;8.38;;;;;;;24.96;22.40;101884.84;5094961;28;20069;-60
2022/05/02 11:04:32;;;;;;;13.65;7.78;;;;;;;25.10;23.04;101870.03;5094942;28;20697;-61
2022/05/02 11:07:09;;;;;;;13.05;7.85;;;;;;;24.82;23.18;101879.00;5094863;28;20030;-61
2022/05/02 11:09:44;;;;;;;11.25;7.70;;;;;;;25.12;22.71;101871.72;5094935;28;20508;-61
2022/05/02 11:12:14;;;;;;;11.40;8.20;;;;;;;24.99;22.44;101865.81;5076600;28;20028;-63
2022/05/02 11:15:01;;;;;;;18.77;7.93;;;;;;;25.47;22.59;101866.94;5077443;28;20479;-61
2022/05/02 11:17:29;;;;;;;9.10;7.43;;;;;;;25.61;22.04;101864.63;5098315;28;20111;-61
2022/05/02 11:23:15;;;;;;;12.65;7.78;;;;;;;25.74;21.90;101862.38;5094801;28;20059;-62
2022/05/02 11:25:57;;;;;;;12.65;7.30;;;;;;;26.11;21.31;101855.59;5094806;28;20035;-63
2022/05/02 11:28:41;;;;;;;10.18;7.35;;;;;;;26.20;20.96;101857.97;5094596;28;20024;-61
2022/05/02 11:31:17;;;;;;;8.73;7.13;;;;;;;26.10;19.84;101853.84;5095149;28;20051;-63
2022/05/02 11:34:08;;;;;;;10.13;7.22;;;;;;;26.57;22.46;101843.00;5094916;28;20028;-61
2022/05/02 11:36:42;;;;;;;13.20;7.93;;;;;;;26.56;20.62;101841.25;5094651;28;20027;-62
2022/05/02 11:39:09;;;;;;;11.02;7.45;;;;;;;26.44;20.40;101840.78;5094346;28;20024;-62
2022/05/02 11:41:42;;;;;;;8.82;7.65;;;;;;;26.54;20.94;101838.56;5094614;28;20114;-61
2022/05/02 11:44:12;;;;;;;10.13;7.40;;;;;;;26.46;21.47;101838.00;5094247;28;20492;-62
2022/05/02 11:46:58;;;;;;;10.38;7.05;;;;;;;26.48;22.04;101838.84;5094378;28;20114;-61
2022/05/02 11:49:34;;;;;;;12.10;8.60;;;;;;;26.61;20.31;101842.81;5094240;28;20032;-61
2022/05/02 11:52:02;;;;;;;11.98;7.93;;;;;;;26.68;20.27;101838.00;5094972;28;20032;-61
2022/05/02 11:54:27;;;;;;;12.10;8.75;;;;;;;26.39;21.03;101833.75;5095858;28;20024;-62
2022/05/02 11:56:59;;;;;;;12.23;7.63;;;;;;;26.62;20.53;101830.13;5095334;28;20488;-61
2022/05/02 11:59:52;;;;;;;12.95;7.63;;;;;;;26.80;20.44;101823.06;5093421;28;20639;-61
2022/05/02 12:02:40;;;;;;;13.07;7.43;;;;;;;27.06;21.12;101822.84;5093553;28;20039;-62
2022/05/02 12:05:17;;;;;;;12.45;7.35;;;;;;;27.10;20.48;101821.81;5093799;28;20028;-61
2022/05/02 12:07:49;;;;;;;10.07;7.25;;;;;;;26.75;20.89;101825.09;5093962;28;20040;-61
2022/05/02 12:10:15;;;;;;;12.60;7.97;;;;;;;26.93;19.93;101829.75;5093899;28;20028;-61
2022/05/02 12:12:48;;;;;;;9.18;7.57;;;;;;;26.95;20.12;101819.72;5094229;28;20035;-61
2022/05/02 12:15:14;;;;;;;9.02;7.40;;;;;;;27.15;20.11;101819.81;5093635;28;20027;-62